createdAt,value
2023-07-23T00:00:33.595Z,97.43
2023-07-23T00:01:33.538Z,97.13
2023-07-23T00:02:33.570Z,97.13
2023-07-23T00:03:33.536Z,97.53
2023-07-23T00:04:33.528Z,97.43
2023-07-23T00:05:33.468Z,97.53
2023-07-23T00:06:33.449Z,97.73
2023-07-23T00:07:33.449Z,97.53
2023-07-23T00:08:33.458Z,97.63
2023-07-23T00:09:33.466Z,97.73
2023-07-23T00:10:33.417Z,97.94
2023-07-23T00:11:33.384Z,97.53
2023-07-23T00:12:33.478Z,97.53
2023-07-23T00:13:33.389Z,97.63
2023-07-23T00:14:33.415Z,97.53
2023-07-23T00:15:33.350Z,97.69
2023-07-23T00:16:33.378Z,98.03
2023-07-23T00:17:33.396Z,97.63
2023-07-23T00:18:33.357Z,97.73
2023-07-23T00:19:33.315Z,97.73
2023-07-23T00:20:33.355Z,97.43
2023-07-23T00:21:33.283Z,97.43
2023-07-23T00:22:33.283Z,97.63
2023-07-23T00:23:33.290Z,97.94
2023-07-23T00:24:33.374Z,97.89
2023-07-23T00:25:33.238Z,97.89
2023-07-23T00:26:33.233Z,97.99
2023-07-23T00:27:33.272Z,97.89
2023-07-23T00:28:33.221Z,97.99
2023-07-23T00:29:33.224Z,97.79
2023-07-23T00:30:33.232Z,97.89
2023-07-23T00:31:33.263Z,97.73
2023-07-23T00:32:33.217Z,97.94
2023-07-23T00:33:33.188Z,97.89
2023-07-23T00:34:33.189Z,97.58
2023-07-23T00:35:33.191Z,98.09
2023-07-23T00:36:33.179Z,97.69
2023-07-23T00:37:33.254Z,98.19
2023-07-23T00:38:33.938Z,97.89
2023-07-23T00:39:33.155Z,97.99
2023-07-23T00:40:33.203Z,97.99
2023-07-23T00:41:33.138Z,97.43
2023-07-23T00:42:33.084Z,97.73
2023-07-23T00:43:33.150Z,97.53
2023-07-23T00:44:33.156Z,97.23
2023-07-23T00:45:33.059Z,97.43
2023-07-23T00:46:33.996Z,97.53
2023-07-23T00:47:33.073Z,97.53
2023-07-23T00:48:33.140Z,97.53
2023-07-23T00:49:32.989Z,97.73
2023-07-23T00:50:32.978Z,97.33
2023-07-23T00:51:32.984Z,97.63
2023-07-23T00:52:33.001Z,97.43
2023-07-23T00:53:32.982Z,97.63
2023-07-23T00:54:32.932Z,97.53
2023-07-23T00:55:32.999Z,97.63
2023-07-23T00:56:32.934Z,97.23
2023-07-23T00:57:32.954Z,97.53
2023-07-23T00:58:32.994Z,97.47
2023-07-23T00:59:32.930Z,97.43
2023-07-23T01:00:32.866Z,97.33
2023-07-23T01:01:32.967Z,97.33
2023-07-23T01:02:32.914Z,97.58
2023-07-23T01:03:32.870Z,97.17
2023-07-23T01:04:32.888Z,97.38
2023-07-23T01:05:32.800Z,97.47
2023-07-23T01:06:32.810Z,98.08
2023-07-23T01:07:32.824Z,97.88
2023-07-23T01:08:32.792Z,98.08
2023-07-23T01:09:32.813Z,98.08
2023-07-23T01:10:32.772Z,98.08
2023-07-23T01:11:32.761Z,98.03
2023-07-23T01:12:32.789Z,98.08
2023-07-23T01:13:32.800Z,98.08
2023-07-23T01:14:32.741Z,98.08
2023-07-23T01:15:32.755Z,97.88
2023-07-23T01:16:32.692Z,97.67
2023-07-23T01:17:32.733Z,97.67
2023-07-23T01:18:32.775Z,97.58
2023-07-23T01:19:32.659Z,97.47
2023-07-23T01:20:32.653Z,97.38
2023-07-23T01:21:32.664Z,97.47
2023-07-23T01:22:32.690Z,97.53
2023-07-23T01:23:32.636Z,97.27
2023-07-23T01:24:32.671Z,97.17
2023-07-23T01:25:32.675Z,97.33
2023-07-23T01:26:32.614Z,97.27
2023-07-23T01:27:32.610Z,97.47
2023-07-23T01:28:32.581Z,97.47
2023-07-23T01:29:32.604Z,97.67
2023-07-23T01:30:32.562Z,97.47
2023-07-23T01:31:32.665Z,97.47
2023-07-23T01:32:32.556Z,97.47
2023-07-23T01:33:32.543Z,97.38
2023-07-23T01:34:32.557Z,97.38
2023-07-23T01:35:32.498Z,97.47
2023-07-23T01:36:32.513Z,97.47
2023-07-23T01:37:32.479Z,97.47
2023-07-23T01:38:32.482Z,97.17
2023-07-23T01:39:32.498Z,97.17
2023-07-23T01:40:32.441Z,96.87
2023-07-23T01:41:32.499Z,96.97
2023-07-23T01:42:32.532Z,97.47
2023-07-23T01:43:32.420Z,96.97
2023-07-23T01:44:32.421Z,97.27
2023-07-23T01:45:32.457Z,97.07
2023-07-23T01:46:32.407Z,97.27
2023-07-23T01:47:32.414Z,97.67
2023-07-23T01:48:32.697Z,97.17
2023-07-23T01:49:32.337Z,97.67
2023-07-23T01:50:32.379Z,97.47
2023-07-23T01:51:32.347Z,97.17
2023-07-23T01:52:32.308Z,97.27
2023-07-23T01:53:32.308Z,97.17
2023-07-23T01:54:32.324Z,97.27
2023-07-23T01:55:32.333Z,97.38
2023-07-23T01:56:32.323Z,96.66
2023-07-23T01:57:32.956Z,96.71
2023-07-23T01:58:32.240Z,97.22
2023-07-23T01:59:32.271Z,97.52
2023-07-23T02:00:32.264Z,97.52
2023-07-23T02:01:32.252Z,97.52
2023-07-23T02:02:32.285Z,97.22
2023-07-23T02:03:32.205Z,97.02
2023-07-23T02:04:32.174Z,97.62
2023-07-23T02:05:32.221Z,97.52
2023-07-23T02:06:32.201Z,97.42
2023-07-23T02:07:32.207Z,97.52
2023-07-23T02:08:32.141Z,97.92
2023-07-23T02:09:32.159Z,97.72
2023-07-23T02:10:32.124Z,98.23
2023-07-23T02:11:32.120Z,97.83
2023-07-23T02:12:32.146Z,97.87
2023-07-23T02:13:32.083Z,97.67
2023-07-23T02:14:32.113Z,97.72
2023-07-23T02:15:32.097Z,98.38
2023-07-23T02:16:32.079Z,98.23
2023-07-23T02:17:32.108Z,98.23
2023-07-23T02:18:32.083Z,98.33
2023-07-23T02:19:32.023Z,98.23
2023-07-23T02:20:32.054Z,98.13
2023-07-23T02:21:32.010Z,98.23
2023-07-23T02:22:31.988Z,98.03
2023-07-23T02:23:31.976Z,97.92
2023-07-23T02:24:32.085Z,98.48
2023-07-23T02:25:31.961Z,98.23
2023-07-23T02:26:31.956Z,97.83
2023-07-23T02:27:31.941Z,97.87
2023-07-23T02:28:31.925Z,97.87
2023-07-23T02:29:31.918Z,98.13
2023-07-23T02:30:31.993Z,98.07
2023-07-23T02:31:31.922Z,97.87
2023-07-23T02:32:31.946Z,97.83
2023-07-23T02:33:31.902Z,97.92
2023-07-23T02:34:31.861Z,98.03
2023-07-23T02:35:31.896Z,97.83
2023-07-23T02:36:31.842Z,97.62
2023-07-23T02:37:31.857Z,97.26
2023-07-23T02:38:31.882Z,97.22
2023-07-23T02:39:31.821Z,97.32
2023-07-23T02:40:31.859Z,97.52
2023-07-23T02:41:31.808Z,97.62
2023-07-23T02:42:31.767Z,97.67
2023-07-23T02:43:31.765Z,97.67
2023-07-23T02:44:31.800Z,97.62
2023-07-23T02:45:31.740Z,97.06
2023-07-23T02:46:31.814Z,97.16
2023-07-23T02:47:31.757Z,97.02
2023-07-23T02:48:31.730Z,97.36
2023-07-23T02:49:31.737Z,97.16
2023-07-23T02:51:41.005Z,97.22
2023-07-23T02:52:40.959Z,97.36
2023-07-23T02:53:40.999Z,97.16
2023-07-23T02:54:40.923Z,97.72
2023-07-23T02:55:40.927Z,97.22
2023-07-23T02:56:40.972Z,97.36
2023-07-23T02:57:40.970Z,97.56
2023-07-23T02:58:40.936Z,97.36
2023-07-23T02:59:40.951Z,96.96
2023-07-23T03:00:40.867Z,97.26
2023-07-23T03:01:40.905Z,97.22
2023-07-23T03:02:40.953Z,97.32
2023-07-23T03:03:40.915Z,97.32
2023-07-23T03:04:40.844Z,97.62
2023-07-23T03:05:40.812Z,97.26
2023-07-23T03:06:40.824Z,97.22
2023-07-23T03:07:40.799Z,97.02
2023-07-23T03:08:40.835Z,97.36
2023-07-23T03:09:40.829Z,97.02
2023-07-23T03:10:40.781Z,97.22
2023-07-23T03:11:40.743Z,97.56
2023-07-23T03:12:40.743Z,97.62
2023-07-23T03:13:40.792Z,97.06
2023-07-23T03:14:40.726Z,97.11
2023-07-23T03:15:40.751Z,97.52
2023-07-23T03:16:40.810Z,97.52
2023-07-23T03:17:40.700Z,97.52
2023-07-23T03:18:40.706Z,97.47
2023-07-23T03:19:40.656Z,96.86
2023-07-23T03:20:40.679Z,97.22
2023-07-23T03:21:40.709Z,96.41
2023-07-23T03:22:40.659Z,96.91
2023-07-23T03:23:40.668Z,96.35
2023-07-23T03:24:40.696Z,96.51
2023-07-23T03:25:40.653Z,97.02
2023-07-23T03:26:40.586Z,96.41
2023-07-23T03:27:40.571Z,97.42
2023-07-23T03:28:40.582Z,96.96
2023-07-23T03:29:40.560Z,96.55
2023-07-23T03:30:40.591Z,96.35
2023-07-23T03:31:40.599Z,96.66
2023-07-23T03:32:40.544Z,96.96
2023-07-23T03:33:40.537Z,96.04
2023-07-23T03:34:40.527Z,96.55
2023-07-23T03:35:40.564Z,96.15
2023-07-23T03:36:40.479Z,96.04
2023-07-23T03:37:40.474Z,96.04
2023-07-23T03:38:40.446Z,96.45
2023-07-23T03:39:40.483Z,96.66
2023-07-23T03:40:40.435Z,96.25
2023-07-23T03:41:40.473Z,96.45
2023-07-23T03:42:40.416Z,96.04
2023-07-23T03:43:40.401Z,96.66
2023-07-23T03:44:40.403Z,96.91
2023-07-23T03:45:40.464Z,96.55
2023-07-23T03:46:40.426Z,96.71
2023-07-23T03:47:40.446Z,97.16
2023-07-23T03:48:40.353Z,96.35
2023-07-23T03:49:40.345Z,97.22
2023-07-23T03:50:40.356Z,97.22
2023-07-23T03:51:40.416Z,95.84
2023-07-23T03:52:40.306Z,96.30
2023-07-23T03:53:40.297Z,95.90
2023-07-23T03:54:40.286Z,96.41
2023-07-23T03:55:40.291Z,96.15
2023-07-23T03:56:40.307Z,96.41
2023-07-23T03:57:40.354Z,96.30
2023-07-23T03:58:40.248Z,95.90
2023-07-23T03:59:40.251Z,95.94
2023-07-23T04:00:40.230Z,95.94
2023-07-23T04:01:40.257Z,95.84
2023-07-23T04:02:40.218Z,95.79
2023-07-23T04:03:40.238Z,95.39
2023-07-23T04:04:40.185Z,95.34
2023-07-23T04:05:40.221Z,95.79
2023-07-23T04:06:40.165Z,95.70
2023-07-23T04:07:40.199Z,96.10
2023-07-23T04:08:40.223Z,96.00
2023-07-23T04:09:40.150Z,95.64
2023-07-23T04:10:40.142Z,96.00
2023-07-23T04:11:40.103Z,95.29
2023-07-23T04:12:40.163Z,95.90
2023-07-23T04:13:40.083Z,95.90
2023-07-23T04:14:40.062Z,95.59
2023-07-23T04:15:40.063Z,95.70
2023-07-23T04:16:40.155Z,95.70
2023-07-23T04:17:40.084Z,95.59
2023-07-23T04:18:40.060Z,95.70
2023-07-23T04:19:40.009Z,95.74
2023-07-23T04:20:40.276Z,95.70
2023-07-23T04:21:40.034Z,95.70
2023-07-23T04:22:40.002Z,95.59
2023-07-23T04:23:39.975Z,96.00
2023-07-23T04:24:40.051Z,96.30
2023-07-23T04:25:39.954Z,96.30
2023-07-23T04:26:39.982Z,96.10
2023-07-23T04:27:39.978Z,95.79
2023-07-23T04:28:39.908Z,95.90
2023-07-23T04:29:39.904Z,95.45
2023-07-23T04:30:39.936Z,95.50
2023-07-23T04:31:39.993Z,95.50
2023-07-23T04:32:39.904Z,95.39
2023-07-23T04:33:39.867Z,95.75
2023-07-23T04:34:39.861Z,95.95
2023-07-23T04:35:39.905Z,96.36
2023-07-23T04:36:39.868Z,96.15
2023-07-23T04:37:39.820Z,96.36
2023-07-23T04:38:39.830Z,95.86
2023-07-23T04:39:39.849Z,95.75
2023-07-23T04:40:39.793Z,95.95
2023-07-23T04:41:39.777Z,95.45
2023-07-23T04:42:39.816Z,95.75
2023-07-23T04:43:39.753Z,95.86
2023-07-23T04:44:39.820Z,95.75
2023-07-23T04:45:39.741Z,95.55
2023-07-23T04:46:39.737Z,95.55
2023-07-23T04:47:39.835Z,95.65
2023-07-23T04:48:39.693Z,95.04
2023-07-23T04:49:39.684Z,95.35
2023-07-23T04:50:39.674Z,95.04
2023-07-23T04:51:39.739Z,95.25
2023-07-23T04:52:39.692Z,95.35
2023-07-23T04:53:39.655Z,95.45
2023-07-23T04:54:39.661Z,96.06
2023-07-23T04:55:39.624Z,95.55
2023-07-23T04:56:39.664Z,95.35
2023-07-23T04:57:39.660Z,95.35
2023-07-23T04:58:39.625Z,95.25
2023-07-23T04:59:39.606Z,95.45
2023-07-23T05:00:39.609Z,95.71
2023-07-23T05:01:39.592Z,95.65
2023-07-23T05:02:39.584Z,95.20
2023-07-23T05:03:39.593Z,95.40
2023-07-23T05:04:39.526Z,95.40
2023-07-23T05:05:39.518Z,95.65
2023-07-23T05:06:39.539Z,94.90
2023-07-23T05:07:39.495Z,95.50
2023-07-23T05:08:39.562Z,96.01
2023-07-23T05:09:39.475Z,94.70
2023-07-23T05:10:39.474Z,94.79
2023-07-23T05:11:39.452Z,94.19
2023-07-23T05:12:39.452Z,94.09
2023-07-23T05:13:39.431Z,94.49
2023-07-23T05:14:39.485Z,93.58
2023-07-23T05:15:39.453Z,93.18
2023-07-23T05:16:39.442Z,93.38
2023-07-23T05:17:39.482Z,93.27
2023-07-23T05:18:39.395Z,92.32
2023-07-23T05:19:39.406Z,90.70
2023-07-23T05:20:39.353Z,90.70
2023-07-23T05:21:39.337Z,91.31
2023-07-23T05:22:39.413Z,91.41
2023-07-23T05:23:39.313Z,91.71
2023-07-23T05:24:39.320Z,90.76
2023-07-23T05:25:39.303Z,90.80
2023-07-23T05:26:39.354Z,91.06
2023-07-23T05:27:39.280Z,91.27
2023-07-23T05:28:39.314Z,91.37
2023-07-23T05:29:39.282Z,91.87
2023-07-23T05:30:39.234Z,91.27
2023-07-23T05:31:39.428Z,91.37
2023-07-23T05:32:39.268Z,90.76
2023-07-23T05:33:39.275Z,91.37
2023-07-23T05:34:39.195Z,90.86
2023-07-23T05:35:39.186Z,90.16
2023-07-23T05:36:39.211Z,89.75
2023-07-23T05:37:39.242Z,90.36
2023-07-23T05:38:39.187Z,89.91
2023-07-23T05:39:39.138Z,89.85
2023-07-23T05:40:39.167Z,89.61
2023-07-23T05:41:39.125Z,89.50
2023-07-23T05:42:39.185Z,89.40
2023-07-23T05:43:39.155Z,90.36
2023-07-23T05:44:39.093Z,90.31
2023-07-23T05:45:39.073Z,90.82
2023-07-23T05:46:39.104Z,89.20
2023-07-23T05:47:39.073Z,89.91
2023-07-23T05:48:39.106Z,88.59
2023-07-23T05:49:39.036Z,88.70
2023-07-23T05:50:39.028Z,88.70
2023-07-23T05:51:39.004Z,88.79
2023-07-23T05:52:39.078Z,89.30
2023-07-23T05:53:38.998Z,90.01
2023-07-23T05:54:39.045Z,89.76
2023-07-23T05:55:38.960Z,89.06
2023-07-23T05:56:38.949Z,87.95
2023-07-23T05:57:38.962Z,88.35
2023-07-23T05:58:38.956Z,87.84
2023-07-23T05:59:38.922Z,87.64
2023-07-23T06:00:39.023Z,88.35
2023-07-23T06:01:38.955Z,88.04
2023-07-23T06:02:38.939Z,88.15
2023-07-23T06:03:48.557Z,88.35
2023-07-23T06:04:39.901Z,87.54
2023-07-23T06:05:38.877Z,88.04
2023-07-23T06:06:38.919Z,88.25
2023-07-23T06:07:38.841Z,88.25
2023-07-23T06:08:38.841Z,88.35
2023-07-23T06:09:38.852Z,88.35
2023-07-23T06:10:38.816Z,88.35
2023-07-23T06:11:38.852Z,87.95
2023-07-23T06:12:38.795Z,87.95
2023-07-23T06:13:38.778Z,87.74
2023-07-23T06:14:38.833Z,87.84
2023-07-23T06:15:38.793Z,87.04
2023-07-23T06:16:38.812Z,87.81
2023-07-23T06:17:38.798Z,87.70
2023-07-23T06:18:38.755Z,88.31
2023-07-23T06:19:38.740Z,88.21
2023-07-23T06:20:38.693Z,88.10
2023-07-23T06:21:38.780Z,88.01
2023-07-23T06:22:38.744Z,87.90
2023-07-23T06:23:38.673Z,87.81
2023-07-23T06:24:38.794Z,88.10
2023-07-23T06:25:38.681Z,88.06
2023-07-23T06:26:38.656Z,87.81
2023-07-23T06:27:38.671Z,86.79
2023-07-23T06:28:38.790Z,86.19
2023-07-23T06:29:38.619Z,85.74
2023-07-23T06:30:38.692Z,86.79
2023-07-23T06:31:38.578Z,86.85
2023-07-23T06:32:38.633Z,86.04
2023-07-23T06:33:38.570Z,86.65
2023-07-23T06:34:38.561Z,85.64
2023-07-23T06:35:38.686Z,86.55
2023-07-23T06:36:38.534Z,86.51
2023-07-23T06:37:38.543Z,86.21
2023-07-23T06:38:38.511Z,86.21
2023-07-23T06:39:38.502Z,86.15
2023-07-23T06:40:38.674Z,85.90
2023-07-23T06:41:38.524Z,85.80
2023-07-23T06:42:38.466Z,85.70
2023-07-23T06:43:38.449Z,85.50
2023-07-23T06:44:38.449Z,84.59
2023-07-23T06:45:38.466Z,83.95
2023-07-23T06:46:38.523Z,83.95
2023-07-23T06:47:38.441Z,84.19
2023-07-23T06:48:38.413Z,84.45
2023-07-23T06:49:38.454Z,84.85
2023-07-23T06:50:38.450Z,84.25
2023-07-23T06:51:38.370Z,83.74
2023-07-23T06:52:38.412Z,84.75
2023-07-23T06:53:38.359Z,83.04
2023-07-23T06:54:42.391Z,83.04
2023-07-23T06:55:38.424Z,83.91
2023-07-23T06:56:38.314Z,82.79
2023-07-23T06:57:38.362Z,83.30
2023-07-23T06:58:38.294Z,83.20
2023-07-23T06:59:38.344Z,82.79
2023-07-23T07:00:38.313Z,83.00
2023-07-23T07:01:38.307Z,83.20
2023-07-23T07:02:38.426Z,83.40
2023-07-23T07:03:38.448Z,84.77
2023-07-23T07:04:38.248Z,83.36
2023-07-23T07:05:38.265Z,82.86
2023-07-23T07:06:38.261Z,82.45
2023-07-23T07:07:38.201Z,82.25
2023-07-23T07:08:38.220Z,82.65
2023-07-23T07:09:38.173Z,82.86
2023-07-23T07:10:38.185Z,81.81
2023-07-23T07:11:38.167Z,81.81
2023-07-23T07:12:38.217Z,81.71
2023-07-23T07:13:38.128Z,82.31
2023-07-23T07:14:38.144Z,82.31
2023-07-23T07:15:38.379Z,81.10
2023-07-23T07:16:38.167Z,81.81
2023-07-23T07:17:38.820Z,81.61
2023-07-23T07:18:38.153Z,80.60
2023-07-23T07:19:38.066Z,81.81
2023-07-23T07:20:38.151Z,82.31
2023-07-23T07:21:38.142Z,81.24
2023-07-23T07:22:38.077Z,81.04
2023-07-23T07:23:38.063Z,81.71
2023-07-23T07:24:38.084Z,81.61
2023-07-23T07:25:37.996Z,81.30
2023-07-23T07:26:37.999Z,81.01
2023-07-23T07:27:37.991Z,80.50
2023-07-23T07:28:38.006Z,81.21
2023-07-23T07:29:37.952Z,80.70
2023-07-23T07:30:37.944Z,80.40
2023-07-23T07:31:37.941Z,80.50
2023-07-23T07:32:37.949Z,80.90
2023-07-23T07:33:37.920Z,80.40
2023-07-23T07:34:37.997Z,81.17
2023-07-23T07:35:37.898Z,80.97
2023-07-23T07:36:37.883Z,80.57
2023-07-23T07:37:37.950Z,79.36
2023-07-23T07:38:37.892Z,79.76
2023-07-23T07:39:37.842Z,79.86
2023-07-23T07:40:37.845Z,79.16
2023-07-23T07:41:37.856Z,79.11
2023-07-23T07:42:37.806Z,79.16
2023-07-23T07:43:37.805Z,78.91
2023-07-23T07:44:37.792Z,78.91
2023-07-23T07:45:37.853Z,78.45
2023-07-23T07:46:37.814Z,79.11
2023-07-23T07:47:37.812Z,78.55
2023-07-23T07:48:37.805Z,78.41
2023-07-23T07:49:37.815Z,78.01
2023-07-23T07:50:37.750Z,77.40
2023-07-23T07:51:37.765Z,76.90
2023-07-23T07:52:37.710Z,77.40
2023-07-23T07:53:37.798Z,77.81
2023-07-23T07:54:37.702Z,78.67
2023-07-23T07:55:37.731Z,77.47
2023-07-23T07:56:37.661Z,77.87
2023-07-23T07:57:37.666Z,77.47
2023-07-23T07:58:37.665Z,77.27
2023-07-23T07:59:37.632Z,77.07
2023-07-23T08:00:37.683Z,77.07
2023-07-23T08:01:37.677Z,76.93
2023-07-23T08:02:37.663Z,77.47
2023-07-23T08:03:37.894Z,76.73
2023-07-23T08:04:37.778Z,76.97
2023-07-23T08:05:37.681Z,77.17
2023-07-23T08:06:37.580Z,76.16
2023-07-23T08:07:37.612Z,75.42
2023-07-23T08:08:37.544Z,76.23
2023-07-23T08:09:37.581Z,76.93
2023-07-23T08:10:37.514Z,76.43
2023-07-23T08:11:37.514Z,77.33
2023-07-23T08:12:37.514Z,76.93
2023-07-23T08:13:37.546Z,76.53
2023-07-23T08:14:37.480Z,75.79
2023-07-23T08:15:37.482Z,77.00
2023-07-23T08:16:37.497Z,75.99
2023-07-23T08:17:37.445Z,74.08
2023-07-23T08:18:37.489Z,75.49
2023-07-23T08:19:37.428Z,76.25
2023-07-23T08:20:37.405Z,75.95
2023-07-23T08:21:37.452Z,76.05
2023-07-23T08:22:37.439Z,74.95
2023-07-23T08:23:37.365Z,75.25
2023-07-23T08:24:37.385Z,74.04
2023-07-23T08:25:37.381Z,74.31
2023-07-23T08:26:37.356Z,74.21
2023-07-23T08:27:37.351Z,74.81
2023-07-23T08:28:37.365Z,74.01
2023-07-23T08:29:37.379Z,74.51
2023-07-23T08:30:37.329Z,73.21
2023-07-23T08:31:37.369Z,73.10
2023-07-23T08:32:37.381Z,72.40
2023-07-23T08:33:37.408Z,73.10
2023-07-23T08:34:37.262Z,72.60
2023-07-23T08:35:37.244Z,72.20
2023-07-23T08:36:37.288Z,72.10
2023-07-23T08:37:37.224Z,72.40
2023-07-23T08:38:37.253Z,72.71
2023-07-23T08:39:37.221Z,72.60
2023-07-23T08:40:37.257Z,72.20
2023-07-23T08:41:37.217Z,72.20
2023-07-23T08:42:38.211Z,72.71
2023-07-23T08:43:37.203Z,72.50
2023-07-23T08:44:37.162Z,71.73
2023-07-23T08:45:37.236Z,71.53
2023-07-23T08:46:37.145Z,71.94
2023-07-23T08:47:37.123Z,72.64
2023-07-23T08:48:37.221Z,72.84
2023-07-23T08:49:37.145Z,72.94
2023-07-23T08:50:37.082Z,73.24
2023-07-23T08:51:37.078Z,72.53
2023-07-23T08:52:37.077Z,73.44
2023-07-23T08:53:37.046Z,73.64
2023-07-23T08:54:37.187Z,74.04
2023-07-23T08:55:37.086Z,75.05
2023-07-23T08:56:37.055Z,74.74
2023-07-23T08:57:37.022Z,75.25
2023-07-23T08:58:37.002Z,75.35
2023-07-23T08:59:37.046Z,75.89
2023-07-23T09:00:36.982Z,75.99
2023-07-23T09:01:37.012Z,75.38
2023-07-23T09:02:37.068Z,76.19
2023-07-23T09:03:36.945Z,76.03
2023-07-23T09:04:37.032Z,76.83
2023-07-23T09:05:36.927Z,75.72
2023-07-23T09:06:36.915Z,75.72
2023-07-23T09:07:36.912Z,76.53
2023-07-23T09:08:36.928Z,77.23
2023-07-23T09:09:36.937Z,76.46
2023-07-23T09:10:36.904Z,77.23
2023-07-23T09:11:36.888Z,76.36
2023-07-23T09:12:36.848Z,76.12
2023-07-23T09:13:36.906Z,76.53
2023-07-23T09:14:36.908Z,76.36
2023-07-23T09:15:36.810Z,76.26
2023-07-23T09:16:36.893Z,76.46
2023-07-23T09:17:36.894Z,76.97
2023-07-23T09:18:36.815Z,77.27
2023-07-23T09:19:36.844Z,77.03
2023-07-23T09:20:36.783Z,77.07
2023-07-23T09:21:36.804Z,77.37
2023-07-23T09:22:36.750Z,78.98
2023-07-23T09:23:36.736Z,77.67
2023-07-23T09:24:36.762Z,77.77
2023-07-23T09:25:36.777Z,78.31
2023-07-23T09:26:36.717Z,79.02
2023-07-23T09:27:36.797Z,79.32
2023-07-23T09:28:36.677Z,79.56
2023-07-23T09:29:36.672Z,79.36
2023-07-23T09:30:36.749Z,80.02
2023-07-23T09:31:36.715Z,79.86
2023-07-23T09:32:43.712Z,80.66
2023-07-23T09:33:38.425Z,80.57
2023-07-23T09:34:36.665Z,80.57
2023-07-23T09:35:36.604Z,80.66
2023-07-23T09:36:36.686Z,81.47
2023-07-23T09:37:36.599Z,81.27
2023-07-23T09:38:36.629Z,81.67
2023-07-23T09:39:36.673Z,81.87
2023-07-23T09:40:36.619Z,81.71
2023-07-23T09:41:36.531Z,81.57
2023-07-23T09:42:36.604Z,81.67
2023-07-23T09:43:36.630Z,80.20
2023-07-23T09:44:36.527Z,81.57
2023-07-23T09:45:36.513Z,81.98
2023-07-23T09:46:36.547Z,80.87
2023-07-23T09:47:36.601Z,81.77
2023-07-23T09:48:36.469Z,81.17
2023-07-23T09:49:36.455Z,80.26
2023-07-23T09:50:36.461Z,81.27
2023-07-23T09:51:36.476Z,79.86
2023-07-23T09:52:36.582Z,78.91
2023-07-23T09:53:36.433Z,79.02
2023-07-23T09:54:36.430Z,78.11
2023-07-23T09:55:36.400Z,78.15
2023-07-23T09:56:36.430Z,79.02
2023-07-23T09:57:36.383Z,78.31
2023-07-23T09:58:36.386Z,78.71
2023-07-23T09:59:36.973Z,79.11
2023-07-23T10:00:36.407Z,77.57
2023-07-23T10:01:36.425Z,77.57
2023-07-23T10:02:36.405Z,77.37
2023-07-23T10:03:36.335Z,77.47
2023-07-23T10:04:36.302Z,77.87
2023-07-23T10:05:36.369Z,77.70
2023-07-23T10:06:36.328Z,77.70
2023-07-23T10:07:36.303Z,77.91
2023-07-23T10:08:36.410Z,78.81
2023-07-23T10:09:36.259Z,79.08
2023-07-23T10:10:36.321Z,78.88
2023-07-23T10:11:36.222Z,77.87
2023-07-23T10:12:36.243Z,78.78
2023-07-23T10:13:36.197Z,77.67
2023-07-23T10:14:36.202Z,78.78
2023-07-23T10:15:36.192Z,77.67
2023-07-23T10:16:36.463Z,78.78
2023-07-23T10:17:36.192Z,78.54
2023-07-23T10:18:36.143Z,77.73
2023-07-23T10:19:36.194Z,77.63
2023-07-23T10:20:36.119Z,77.23
2023-07-23T10:21:36.181Z,76.43
2023-07-23T10:22:36.102Z,77.13
2023-07-23T10:23:36.110Z,77.83
2023-07-23T10:24:36.131Z,77.39
2023-07-23T10:25:40.516Z,76.43
2023-07-23T10:26:37.076Z,76.63
2023-07-23T10:28:52.253Z,76.43
2023-07-23T10:29:52.222Z,77.13
2023-07-23T10:30:52.325Z,76.93
2023-07-23T10:31:52.221Z,77.03
2023-07-23T10:32:52.267Z,77.03
2023-07-23T10:33:52.165Z,77.00
2023-07-23T10:34:52.145Z,76.89
2023-07-23T10:35:52.304Z,76.93
2023-07-23T10:36:52.171Z,77.00
2023-07-23T10:37:52.110Z,77.03
2023-07-23T10:38:52.148Z,76.89
2023-07-23T10:39:52.143Z,77.39
2023-07-23T10:40:52.471Z,77.23
2023-07-23T10:41:52.057Z,77.23
2023-07-23T10:42:52.065Z,77.63
2023-07-23T10:43:52.058Z,77.43
2023-07-23T10:44:52.082Z,77.90
2023-07-23T10:45:52.321Z,77.94
2023-07-23T10:46:52.015Z,77.53
2023-07-23T10:47:52.031Z,77.43
2023-07-23T10:48:52.105Z,78.27
2023-07-23T10:49:51.982Z,78.44
2023-07-23T10:50:52.346Z,78.58
2023-07-23T10:51:51.959Z,78.07
2023-07-23T10:52:51.952Z,78.88
2023-07-23T10:53:51.971Z,77.97
2023-07-23T10:54:51.949Z,78.58
2023-07-23T10:55:52.124Z,78.98
2023-07-23T10:56:51.909Z,78.98
2023-07-23T10:57:51.903Z,78.98
2023-07-23T10:58:51.930Z,78.88
2023-07-23T10:59:51.879Z,78.88
2023-07-23T11:00:51.899Z,78.94
2023-07-23T11:01:51.933Z,78.84
2023-07-23T11:02:51.949Z,79.04
2023-07-23T11:03:51.989Z,78.94
2023-07-23T11:04:51.842Z,79.24
2023-07-23T11:05:51.901Z,79.64
2023-07-23T11:06:51.806Z,79.94
2023-07-23T11:07:52.834Z,80.39
2023-07-23T11:08:51.830Z,79.68
2023-07-23T11:09:51.766Z,80.29
2023-07-23T11:10:51.783Z,80.95
2023-07-23T11:11:51.748Z,81.29
2023-07-23T11:12:51.774Z,80.95
2023-07-23T11:13:51.729Z,80.95
2023-07-23T11:14:51.715Z,80.49
2023-07-23T11:15:51.720Z,81.05
2023-07-23T11:16:51.745Z,81.15
2023-07-23T11:18:04.592Z,80.89
2023-07-23T11:18:52.685Z,80.29
2023-07-23T11:19:51.653Z,80.39
2023-07-23T11:20:51.675Z,81.13
2023-07-23T11:21:51.741Z,81.63
2023-07-23T11:22:51.647Z,81.63
2023-07-23T11:23:51.627Z,82.14
2023-07-23T11:24:51.622Z,82.04
2023-07-23T11:25:51.636Z,82.54
2023-07-23T11:26:51.652Z,83.84
2023-07-23T11:27:51.588Z,85.46
2023-07-23T11:28:51.557Z,85.16
2023-07-23T11:29:51.547Z,85.76
2023-07-23T11:30:51.565Z,86.21
2023-07-23T11:31:51.634Z,85.90
2023-07-23T11:32:51.538Z,85.76
2023-07-23T11:33:51.535Z,86.71
2023-07-23T11:34:51.511Z,88.02
2023-07-23T11:35:51.543Z,87.92
2023-07-23T11:36:51.467Z,87.21
2023-07-23T11:37:51.528Z,87.21
2023-07-23T11:38:51.460Z,87.85
2023-07-23T11:39:51.455Z,88.12
2023-07-23T11:40:51.464Z,87.71
2023-07-23T11:41:51.427Z,87.82
2023-07-23T11:42:51.465Z,87.85
2023-07-23T11:43:51.404Z,88.16
2023-07-23T11:44:51.402Z,88.82
2023-07-23T11:45:51.392Z,88.32
2023-07-23T11:46:51.443Z,89.83
2023-07-23T11:47:53.395Z,89.23
2023-07-23T11:48:51.356Z,88.62
2023-07-23T11:49:51.413Z,89.03
2023-07-23T11:50:51.358Z,89.17
2023-07-23T11:51:51.354Z,89.53
2023-07-23T11:52:51.316Z,89.47
2023-07-23T11:53:51.362Z,89.83
2023-07-23T11:54:51.292Z,89.97
2023-07-23T11:55:51.285Z,90.13
2023-07-23T11:56:51.299Z,89.53
2023-07-23T11:57:51.259Z,89.83
2023-07-23T11:58:51.255Z,90.07
2023-07-23T11:59:51.244Z,90.28
2023-07-23T12:00:51.237Z,90.48
2023-07-23T12:01:51.300Z,90.28
2023-07-23T12:02:51.235Z,90.03
2023-07-23T12:03:51.220Z,90.28
2023-07-23T12:04:51.232Z,91.04
2023-07-23T12:05:51.187Z,90.44
2023-07-23T12:06:51.181Z,90.23
2023-07-23T12:07:51.153Z,90.33
2023-07-23T12:08:51.138Z,89.97
2023-07-23T12:09:51.150Z,90.98
2023-07-23T12:10:51.182Z,90.37
2023-07-23T12:11:51.113Z,90.28
2023-07-23T12:12:51.087Z,90.17
2023-07-23T12:13:51.093Z,90.17
2023-07-23T12:14:51.087Z,90.48
2023-07-23T12:15:51.137Z,90.48
2023-07-23T12:16:51.172Z,90.28
2023-07-23T12:17:51.101Z,90.48
2023-07-23T12:18:51.079Z,90.07
2023-07-23T12:19:51.038Z,90.17
2023-07-23T12:20:51.028Z,90.88
2023-07-23T12:21:51.031Z,90.84
2023-07-23T12:22:50.991Z,90.64
2023-07-23T12:23:51.020Z,90.94
2023-07-23T12:24:51.018Z,90.73
2023-07-23T12:25:51.007Z,90.84
2023-07-23T12:26:50.997Z,91.14
2023-07-23T12:27:50.946Z,91.34
2023-07-23T12:28:50.971Z,91.14
2023-07-23T12:29:50.922Z,91.04
2023-07-23T12:30:50.930Z,91.34
2023-07-23T12:31:51.088Z,91.85
2023-07-23T12:32:50.939Z,92.05
2023-07-23T12:33:50.921Z,92.29
2023-07-23T12:34:50.874Z,92.59
2023-07-23T12:35:50.897Z,93.46
2023-07-23T12:36:50.837Z,93.19
2023-07-23T12:37:50.909Z,93.80
2023-07-23T12:38:50.878Z,93.46
2023-07-23T12:39:50.830Z,94.46
2023-07-23T12:40:50.803Z,94.31
2023-07-23T12:41:50.777Z,93.86
2023-07-23T12:42:50.844Z,94.20
2023-07-23T12:43:50.775Z,94.20
2023-07-23T12:44:50.772Z,94.60
2023-07-23T12:45:50.778Z,94.76
2023-07-23T12:46:50.801Z,94.91
2023-07-23T12:47:50.782Z,95.01
2023-07-23T12:48:50.737Z,94.26
2023-07-23T12:49:50.772Z,95.01
2023-07-23T12:50:50.713Z,94.76
2023-07-23T12:51:50.685Z,94.46
2023-07-23T12:52:50.691Z,95.17
2023-07-23T12:53:50.712Z,94.76
2023-07-23T12:54:50.654Z,94.67